Time;durP1;ratioP1;P1;durP2;ratioP2;P2;SDS_P1;SDS_P2;PMS_P1;PMS_P2;Temp;Humidity;BMP_temperature;BMP_pressure;BME280_temperature;BME280_humidity;BME280_pressure;Samples;Min_cycle;Max_cycle;Signal;HPM_P1;HPM_P2
2022/06/23 00:01:18;;;;;;;3.63;1.70;;;;;;;23.43;44.77;101312.72;5105380;28;20044;-58
2022/06/23 00:03:45;;;;;;;5.38;1.85;;;;;;;23.43;44.83;101312.72;5087668;28;20035;-59
2022/06/23 00:06:28;;;;;;;3.50;2.15;;;;;;;23.37;45.02;101309.94;5105240;28;20028;-59
2022/06/23 00:08:53;;;;;;;2.42;1.65;;;;;;;23.41;44.84;101311.25;5100253;28;20032;-59
2022/06/23 00:11:26;;;;;;;2.65;1.73;;;;;;;23.41;44.94;101305.81;5103991;28;20030;-59
2022/06/23 00:13:56;;;;;;;4.03;2.10;;;;;;;23.41;44.95;101306.66;5105185;28;20053;-59
2022/06/23 00:16:24;;;;;;;2.63;1.80;;;;;;;23.40;44.88;101298.69;5070410;28;20081;-59
2022/06/23 00:18:49;;;;;;;3.15;1.90;;;;;;;23.39;44.95;101292.41;5105654;28;20032;-59
2022/06/23 00:21:25;;;;;;;2.83;1.90;;;;;;;23.39;45.04;101287.00;5104589;28;20095;-59
2022/06/23 00:23:59;;;;;;;2.83;1.70;;;;;;;23.38;44.89;101296.16;5087621;28;20047;-59
2022/06/23 00:26:27;;;;;;;3.25;1.83;;;;;;;23.38;44.76;101284.47;5087324;28;20028;-59
2022/06/23 00:28:59;;;;;;;3.35;2.17;;;;;;;23.37;44.87;101280.09;5104372;28;20031;-59
2022/06/23 00:31:59;;;;;;;3.72;2.00;;;;;;;23.37;44.80;101274.66;5105034;28;20032;-59
2022/06/23 00:34:34;;;;;;;5.10;1.63;;;;;;;23.36;44.86;101286.53;5103879;28;20024;-59
2022/06/23 00:37:18;;;;;;;3.75;2.10;;;;;;;23.35;44.75;101293.81;5104225;28;20058;-59
2022/06/23 00:39:53;;;;;;;3.85;2.30;;;;;;;23.35;44.77;101284.84;5086969;28;20054;-59
2022/06/23 00:42:37;;;;;;;3.58;1.83;;;;;;;23.34;44.74;101294.03;5103727;28;20043;-59
2022/06/23 00:45:11;;;;;;;4.22;2.50;;;;;;;23.33;44.68;101292.34;5087330;28;20048;-59
2022/06/23 00:47:49;;;;;;;5.07;2.17;;;;;;;23.31;44.71;101287.09;5105488;28;20040;-59
2022/06/23 00:50:34;;;;;;;4.22;2.45;;;;;;;23.32;45.03;101290.63;5104845;28;20054;-59
2022/06/23 00:53:01;;;;;;;3.28;2.00;;;;;;;23.31;44.99;101297.09;5105035;28;20032;-59
2022/06/23 00:55:38;;;;;;;2.95;2.13;;;;;;;23.30;44.90;101285.41;5103932;28;20021;-59
2022/06/23 00:58:18;;;;;;;3.85;1.90;;;;;;;23.30;44.98;101292.72;5103951;28;20023;-59
2022/06/23 01:00:44;;;;;;;3.83;2.20;;;;;;;23.27;44.63;101296.63;5104633;28;20035;-59
2022/06/23 01:03:24;;;;;;;3.65;2.17;;;;;;;23.27;44.57;101287.66;5115310;28;20020;-58
2022/06/23 01:06:14;;;;;;;3.03;1.98;;;;;;;23.24;45.13;101288.91;5106946;28;20021;-59
2022/06/23 01:09:00;;;;;;;3.75;2.10;;;;;;;23.27;44.98;101291.22;5125675;28;20028;-59
2022/06/23 01:11:34;;;;;;;4.35;2.10;;;;;;;23.27;44.87;101301.22;5094542;28;20028;-59
2022/06/23 01:14:09;;;;;;;4.72;2.65;;;;;;;23.25;44.60;101296.00;5086978;28;20023;-59
2022/06/23 01:16:48;;;;;;;2.72;1.90;;;;;;;23.24;44.54;101290.78;5086857;28;20103;-58
2022/06/23 01:19:47;;;;;;;4.80;2.65;;;;;;;23.24;44.50;101288.91;5092979;28;20098;-59
2022/06/23 01:22:20;;;;;;;3.42;2.20;;;;;;;23.24;44.76;101279.91;5125076;28;20143;-58
2022/06/23 01:25:27;;;;;;;3.58;2.20;;;;;;;23.19;44.59;101278.59;5107325;28;20051;-58
2022/06/23 01:28:15;;;;;;;3.60;2.05;;;;;;;23.21;44.72;101281.13;5088836;28;20064;-59
2022/06/23 01:30:50;;;;;;;3.53;2.00;;;;;;;23.21;44.90;101286.56;5110737;28;20023;-59
2022/06/23 01:33:34;;;;;;;4.70;2.53;;;;;;;23.20;44.53;101279.44;5110820;28;20272;-59
2022/06/23 01:36:13;;;;;;;4.13;2.20;;;;;;;23.18;44.53;101274.19;5124805;28;20023;-58
2022/06/23 01:38:50;;;;;;;;;;;;;;;23.16;44.78;101270.84;5109167;28;20024;-58
2022/06/23 01:41:37;;;;;;;4.38;2.58;;;;;;;23.17;44.49;101275.22;5108106;28;19912;-58
2022/06/23 01:44:13;;;;;;;4.47;2.20;;;;;;;23.16;44.59;101275.44;5090268;28;20048;-59
2022/06/23 01:46:41;;;;;;;3.92;2.22;;;;;;;23.16;44.46;101272.72;5090115;28;20027;-59
2022/06/23 01:49:10;;;;;;;4.47;2.45;;;;;;;23.15;44.53;101276.44;5090760;28;20077;-59
2022/06/23 01:51:35;;;;;;;2.63;1.90;;;;;;;23.13;44.35;101268.50;5107536;28;20034;-59
2022/06/23 01:54:13;;;;;;;4.25;2.13;;;;;;;23.13;44.72;101268.50;5108390;28;20012;-59
2022/06/23 01:56:44;;;;;;;2.95;1.90;;;;;;;23.12;44.73;101272.25;5089907;28;20024;-59
2022/06/23 01:59:21;;;;;;;3.25;1.70;;;;;;;23.12;44.33;101269.53;5090057;28;20042;-58
2022/06/23 02:01:50;;;;;;;3.25;2.08;;;;;;;23.11;44.63;101276.00;5089675;28;20031;-59
2022/06/23 02:04:24;;;;;;;;;;;;;;;23.10;44.36;101278.88;5091041;28;20020;-59
2022/06/23 02:06:54;;;;;;;3.25;2.13;;;;;;;23.08;44.54;101272.81;5107553;28;19912;-58
2022/06/23 02:09:27;;;;;;;4.20;2.33;;;;;;;23.01;44.60;101264.56;5089735;28;20035;-59
2022/06/23 02:11:53;;;;;;;4.35;2.22;;;;;;;23.08;44.57;101276.34;5107452;28;20024;-59
2022/06/23 02:14:49;;;;;;;5.05;2.25;;;;;;;23.08;44.38;101272.81;5109873;28;20051;-59
2022/06/23 02:17:21;;;;;;;5.53;2.60;;;;;;;23.06;44.54;101270.25;5128030;28;20037;-59
2022/06/23 02:19:49;;;;;;;3.55;1.88;;;;;;;23.07;44.30;101268.41;5109342;28;20027;-59
2022/06/23 02:22:27;;;;;;;3.25;2.17;;;;;;;23.06;44.24;101272.13;5109535;28;20239;-59
2022/06/23 02:24:56;;;;;;;3.47;2.10;;;;;;;23.05;44.28;101281.31;5128243;28;20033;-58
2022/06/23 02:27:37;;;;;;;3.63;2.30;;;;;;;23.05;44.18;101276.72;5109600;28;20016;-59
2022/06/23 02:30:05;;;;;;;4.93;3.33;;;;;;;23.03;44.03;101289.66;5127791;28;20016;-59
2022/06/23 02:33:07;;;;;;;4.35;2.67;;;;;;;23.04;43.99;101283.19;5127714;28;20024;-59
2022/06/23 02:35:33;;;;;;;4.57;2.13;;;;;;;23.03;44.10;101277.97;5127377;28;20024;-59
2022/06/23 02:38:12;;;;;;;4.07;2.45;;;;;;;23.02;44.21;101274.38;5127915;28;20068;-59
2022/06/23 02:41:03;;;;;;;2.60;2.13;;;;;;;22.93;43.92;101262.78;5109423;28;20056;-59
2022/06/23 02:43:44;;;;;;;3.72;2.35;;;;;;;22.91;44.07;101250.47;5108996;28;20046;-59
2022/06/23 02:46:42;;;;;;;3.30;2.17;;;;;;;23.00;44.25;101256.63;5127413;28;20069;-59
2022/06/23 02:49:56;;;;;;;3.72;2.20;;;;;;;22.98;44.21;101250.53;5127561;28;20028;-59
2022/06/23 02:52:37;;;;;;;3.58;2.20;;;;;;;22.98;44.06;101250.53;5127011;28;20020;-59
2022/06/23 02:55:21;;;;;;;4.53;2.65;;;;;;;22.97;43.97;101243.44;5109445;28;20028;-59
2022/06/23 02:57:48;;;;;;;4.78;2.70;;;;;;;22.94;43.89;101241.97;5127461;28;20023;-59
2022/06/23 03:00:19;;;;;;;4.03;2.40;;;;;;;22.94;44.11;101239.25;5109177;28;20023;-58
2022/06/23 03:03:14;;;;;;;2.60;1.90;;;;;;;22.93;43.90;101238.38;5109213;28;20031;-59
2022/06/23 03:05:56;;;;;;;5.43;2.15;;;;;;;22.92;43.94;101239.41;5109082;28;20499;-59
2022/06/23 03:09:03;;;;;;;3.83;2.40;;;;;;;22.92;43.69;101242.13;5127403;28;20027;-59
2022/06/23 03:11:53;;;;;;;3.72;2.30;;;;;;;22.90;44.00;101238.78;5100294;28;20133;-58
2022/06/23 03:14:53;;;;;;;2.60;2.15;;;;;;;22.90;43.81;101241.50;5106894;28;20024;-59
2022/06/23 03:17:39;;;;;;;5.65;2.80;;;;;;;22.82;43.67;101230.69;5088347;28;20181;-59
2022/06/23 03:20:31;;;;;;;3.90;2.30;;;;;;;22.88;43.71;101238.06;5105949;28;20178;-59
2022/06/23 03:23:09;;;;;;;3.58;2.22;;;;;;;22.87;43.69;101235.56;5106264;28;20032;-59
2022/06/23 03:25:42;;;;;;;2.60;2.03;;;;;;;22.87;43.64;101235.56;5106325;28;20020;-59
2022/06/23 03:28:07;;;;;;;2.88;2.45;;;;;;;22.86;43.59;101244.72;5088249;28;20031;-59
2022/06/23 03:30:38;;;;;;;3.42;1.98;;;;;;;22.85;43.55;101246.59;5106194;28;20024;-59
2022/06/23 03:33:39;;;;;;;3.08;1.95;;;;;;;22.85;43.47;101246.59;5088040;28;20370;-60
2022/06/23 03:36:30;;;;;;;5.95;2.15;;;;;;;22.85;43.58;101245.72;5084100;28;20032;-60
2022/06/23 03:42:23;;;;;;;3.03;2.20;;;;;;;22.83;43.89;101256.78;5105974;28;20136;-59
2022/06/23 03:45:10;;;;;;;5.43;2.83;;;;;;;22.82;43.83;101262.41;5088446;28;20047;-60
2022/06/23 03:47:44;;;;;;;4.63;2.27;;;;;;;22.81;43.70;101266.97;5106329;28;20376;-59
2022/06/23 03:50:28;;;;;;;3.08;2.22;;;;;;;22.82;43.71;101251.56;5087593;28;20050;-59
2022/06/23 03:53:00;;;;;;;2.65;2.22;;;;;;;22.81;43.66;101255.25;5087711;28;20016;-60
2022/06/23 03:55:29;;;;;;;3.10;2.35;;;;;;;22.80;43.66;101253.59;5105807;28;20054;-60
2022/06/23 03:57:58;;;;;;;4.80;2.28;;;;;;;22.79;43.81;101252.75;5087684;28;20099;-60
2022/06/23 04:00:28;;;;;;;;;;;;;;;22.78;43.60;101258.38;5087832;28;20032;-59
2022/06/23 04:03:11;;;;;;;3.95;2.33;;;;;;;22.76;43.79;101253.13;5105696;28;19915;-59
2022/06/23 04:06:12;;;;;;;3.55;1.60;;;;;;;22.76;43.79;101253.13;5087520;28;20436;-60
2022/06/23 04:08:45;;;;;;;4.00;2.50;;;;;;;22.76;43.68;101269.38;5083294;28;20097;-59
2022/06/23 04:14:01;;;;;;;2.92;2.05;;;;;;;22.62;43.74;101234.97;5126034;28;20026;-59
2022/06/23 04:16:27;;;;;;;3.33;2.08;;;;;;;22.74;43.75;101259.78;5125734;28;20020;-60
2022/06/23 04:18:53;;;;;;;4.88;2.40;;;;;;;22.74;43.95;101266.03;5125955;28;20092;-59
2022/06/23 04:21:21;;;;;;;3.10;2.15;;;;;;;22.75;43.86;101262.28;5125137;28;20030;-59
2022/06/23 04:23:50;;;;;;;3.97;1.85;;;;;;;22.75;43.90;101245.19;5107529;28;20066;-59
2022/06/23 04:26:22;;;;;;;2.97;2.05;;;;;;;22.74;43.72;101246.22;5107548;28;20028;-60
2022/06/23 04:28:51;;;;;;;3.83;1.90;;;;;;;22.75;43.74;101239.75;5107710;28;20019;-60
2022/06/23 04:31:29;;;;;;;3.13;2.30;;;;;;;22.75;44.08;101242.47;5125819;28;20024;-59
2022/06/23 04:33:55;;;;;;;3.72;2.13;;;;;;;22.74;43.65;101236.22;5126028;28;20020;-59
2022/06/23 04:36:22;;;;;;;2.70;1.88;;;;;;;22.74;44.01;101238.09;5107139;28;20031;-60
2022/06/23 04:39:02;;;;;;;5.20;2.40;;;;;;;22.74;43.72;101225.38;5107598;28;20026;-60
2022/06/23 04:41:33;;;;;;;3.70;2.15;;;;;;;22.55;43.96;101207.75;5107215;28;20019;-59
2022/06/23 04:44:05;;;;;;;3.15;2.50;;;;;;;22.67;43.92;101230.69;5107290;28;20039;-59
2022/06/23 04:46:38;;;;;;;4.28;2.35;;;;;;;22.73;44.03;101231.81;5107709;28;20041;-59
2022/06/23 04:49:07;;;;;;;4.18;2.20;;;;;;;22.72;44.27;101227.41;5125766;28;20408;-60
2022/06/23 04:51:37;;;;;;;4.95;2.83;;;;;;;22.72;44.16;101230.13;5125063;28;20015;-59
2022/06/23 04:54:11;;;;;;;3.72;2.80;;;;;;;22.71;43.95;101226.56;5107381;28;20096;-60
2022/06/23 04:56:49;;;;;;;3.58;2.20;;;;;;;22.71;44.12;101229.28;5125392;28;20380;-60
2022/06/23 04:59:31;;;;;;;2.88;2.28;;;;;;;22.71;44.06;101232.00;5107383;28;20019;-60
2022/06/23 05:02:00;;;;;;;3.58;2.13;;;;;;;22.71;44.01;101226.56;5128508;28;20031;-59
2022/06/23 05:04:31;;;;;;;2.67;2.13;;;;;;;22.70;44.23;101221.34;5110799;28;20022;-60
2022/06/23 05:06:59;;;;;;;2.67;2.05;;;;;;;22.53;44.12;101199.00;5126335;28;20035;-60
2022/06/23 05:09:36;;;;;;;4.32;1.92;;;;;;;22.72;44.54;101227.41;5110970;28;20031;-59
2022/06/23 05:12:16;;;;;;;4.03;2.30;;;;;;;22.72;44.56;101232.81;5090871;28;20047;-60
2022/06/23 05:14:50;;;;;;;5.10;2.50;;;;;;;22.71;44.50;101232.00;5090754;28;20028;-59
2022/06/23 05:17:19;;;;;;;3.40;2.40;;;;;;;22.70;44.60;101229.47;5108659;28;20028;-60
2022/06/23 05:19:45;;;;;;;3.83;2.05;;;;;;;22.70;44.42;101233.03;5108904;28;20035;-59
2022/06/23 05:22:30;;;;;;;4.07;2.20;;;;;;;22.72;44.38;101227.41;5090148;28;20031;-59
2022/06/23 05:24:57;;;;;;;5.25;2.20;;;;;;;22.71;44.42;101225.72;5109003;28;20020;-59
2022/06/23 05:27:26;;;;;;;3.38;2.25;;;;;;;22.70;44.76;101219.47;5090054;28;20106;-59
2022/06/23 05:29:51;;;;;;;;;;;;;;;22.71;44.66;101229.28;5108917;28;20092;-58
2022/06/23 05:32:22;;;;;;;5.27;2.43;;;;;;;22.71;44.47;101231.16;5108002;28;19908;-59
2022/06/23 05:35:03;;;;;;;4.15;2.05;;;;;;;22.71;44.38;101229.28;5090447;28;20273;-58
2022/06/23 05:37:44;;;;;;;3.15;2.45;;;;;;;22.72;44.58;101238.25;5108520;28;20512;-59
2022/06/23 05:40:15;;;;;;;3.33;2.10;;;;;;;22.66;44.60;101229.00;5090312;28;20378;-59
2022/06/23 05:42:43;;;;;;;4.05;2.20;;;;;;;22.72;44.59;101227.41;5107886;28;20032;-60
2022/06/23 05:45:15;;;;;;;4.40;2.10;;;;;;;22.68;44.71;101217.97;5090107;28;20130;-58
2022/06/23 05:47:41;;;;;;;2.60;2.08;;;;;;;22.73;44.58;101233.69;5090099;28;20310;-59
2022/06/23 05:50:11;;;;;;;2.65;2.05;;;;;;;22.72;44.69;101227.41;5107572;28;20024;-59
2022/06/23 05:52:44;;;;;;;2.85;1.90;;;;;;;22.69;44.61;101215.09;5089718;28;20016;-59
2022/06/23 05:55:19;;;;;;;3.28;1.80;;;;;;;22.74;44.70;101217.25;5089934;28;20462;-60
2022/06/23 05:57:55;;;;;;;3.30;2.00;;;;;;;22.74;45.04;101228.06;5089758;28;20024;-60
2022/06/23 06:00:31;;;;;;;5.82;2.58;;;;;;;22.75;44.96;101218.06;5090026;28;20062;-59
2022/06/23 06:03:06;;;;;;;3.33;2.00;;;;;;;22.75;44.64;101224.34;5107719;28;20024;-59
2022/06/23 06:05:37;;;;;;;2.65;2.00;;;;;;;22.68;44.78;101216.13;5107473;28;20084;-58
2022/06/23 06:08:11;;;;;;;4.28;1.95;;;;;;;22.75;44.93;101227.03;5107910;28;20024;-59
2022/06/23 06:10:37;;;;;;;4.25;2.08;;;;;;;22.73;44.88;101226.41;5115685;28;20039;-59
2022/06/23 06:13:04;;;;;;;2.20;1.95;;;;;;;22.75;45.16;101227.03;5127398;28;20077;-59
2022/06/23 06:15:38;;;;;;;6.65;2.35;;;;;;;22.77;44.72;101240.41;5128424;28;20089;-59
2022/06/23 06:18:08;;;;;;;5.07;2.45;;;;;;;22.77;45.05;101229.56;5109590;28;20087;-59
2022/06/23 06:20:35;;;;;;;2.30;2.08;;;;;;;22.78;44.85;101223.13;5108836;28;20110;-59
2022/06/23 06:23:01;;;;;;;3.10;2.30;;;;;;;22.78;44.78;101220.41;5127939;28;20051;-60
2022/06/23 06:25:32;;;;;;;4.72;2.35;;;;;;;22.79;44.71;101216.66;5128098;28;20019;-60
2022/06/23 06:28:09;;;;;;;2.60;1.80;;;;;;;22.78;45.09;101218.53;5127851;28;20048;-58
2022/06/23 06:30:37;;;;;;;2.88;1.80;;;;;;;22.80;44.86;101210.22;5109405;28;20058;-58
2022/06/23 06:33:03;;;;;;;2.40;1.60;;;;;;;22.79;44.67;101209.38;5109297;28;20038;-58
2022/06/23 06:35:38;;;;;;;2.42;1.73;;;;;;;22.80;44.99;101213.75;5127358;28;20031;-57
2022/06/23 06:38:12;;;;;;;2.85;1.98;;;;;;;22.80;44.74;101213.75;5109305;28;20034;-58
2022/06/23 06:40:38;;;;;;;2.63;1.80;;;;;;;22.79;44.79;101212.09;5109365;28;20020;-59
2022/06/23 06:43:07;;;;;;;3.03;1.88;;;;;;;22.80;44.90;101211.06;5127062;28;20035;-59
2022/06/23 06:45:35;;;;;;;3.90;2.13;;;;;;;22.70;44.83;101196.94;5109191;28;20047;-59
2022/06/23 06:48:02;;;;;;;2.78;1.88;;;;;;;22.82;44.58;101210.88;5127423;28;20015;-59
2022/06/23 06:50:38;;;;;;;3.22;1.98;;;;;;;22.80;44.64;101208.34;5126906;28;20024;-59
2022/06/23 06:53:33;;;;;;;3.22;1.92;;;;;;;22.77;44.83;101202.44;5108937;28;20019;-59
2022/06/23 06:56:04;;;;;;;2.63;1.70;;;;;;;22.80;45.04;101202.09;5126812;28;20104;-59
2022/06/23 06:58:40;;;;;;;3.90;2.28;;;;;;;22.84;45.12;101206.94;5109178;28;20027;-59
2022/06/23 07:01:10;;;;;;;3.65;2.30;;;;;;;22.85;44.74;101213.19;5126931;28;20020;-59
2022/06/23 07:03:36;;;;;;;2.30;1.73;;;;;;;22.85;44.61;101213.19;5108959;28;20020;-59
2022/06/23 07:06:19;;;;;;;3.40;1.88;;;;;;;22.86;44.81;101213.03;5108692;28;20049;-59
2022/06/23 07:08:50;;;;;;;2.22;1.60;;;;;;;22.87;44.94;101206.56;5109104;28;20035;-59
2022/06/23 07:11:28;;;;;;;2.30;1.73;;;;;;;22.87;44.80;101201.16;5095224;28;20027;-59
2022/06/23 07:14:07;;;;;;;2.75;1.90;;;;;;;22.88;44.94;101216.38;5106319;28;20077;-59
2022/06/23 07:17:04;;;;;;;2.97;1.85;;;;;;;22.89;44.73;101223.47;5088326;28;20028;-59
2022/06/23 07:19:36;;;;;;;2.90;2.05;;;;;;;22.91;44.92;101218.75;5080301;28;20043;-58
2022/06/23 07:22:14;;;;;;;3.10;1.52;;;;;;;22.92;44.65;101219.59;5105699;28;20091;-58
2022/06/23 07:25:00;;;;;;;2.10;1.70;;;;;;;22.92;44.66;101206.88;5105759;28;20051;-59
2022/06/23 07:27:33;;;;;;;3.45;1.90;;;;;;;22.90;44.93;101211.66;5088103;28;20429;-59
2022/06/23 07:30:06;;;;;;;3.13;1.80;;;;;;;22.94;44.95;101223.81;5088045;28;20027;-59
2022/06/23 07:32:51;;;;;;;4.25;1.70;;;;;;;22.95;44.47;101209.22;5087646;28;20096;-58
2022/06/23 07:35:29;;;;;;;3.70;1.88;;;;;;;22.94;44.86;101209.41;5087926;28;20020;-59
2022/06/23 07:38:07;;;;;;;3.65;2.17;;;;;;;22.98;44.50;101209.84;5087818;28;20016;-59
2022/06/23 07:40:39;;;;;;;3.95;2.22;;;;;;;22.98;44.56;101205.31;5087553;28;20038;-58
2022/06/23 07:43:11;;;;;;;4.18;2.13;;;;;;;22.97;44.51;101200.88;5105575;28;20044;-58
2022/06/23 07:45:45;;;;;;;2.83;1.75;;;;;;;22.95;44.57;101190.25;5087611;28;20123;-59
2022/06/23 07:48:10;;;;;;;2.47;1.85;;;;;;;23.02;44.54;101200.31;5087903;28;20027;-59
2022/06/23 07:50:35;;;;;;;3.03;1.80;;;;;;;23.01;44.69;101198.66;5105274;28;20016;-59
2022/06/23 07:53:01;;;;;;;1.60;1.48;;;;;;;23.05;44.53;101202.66;5087482;28;20024;-59
2022/06/23 07:55:32;;;;;;;2.85;1.90;;;;;;;23.07;44.76;101203.34;5087642;28;20077;-59
2022/06/23 07:57:58;;;;;;;2.45;1.67;;;;;;;23.09;44.59;101203.97;5105702;28;20073;-59
2022/06/23 08:00:24;;;;;;;3.05;1.92;;;;;;;23.10;44.43;101192.06;5105461;28;20427;-59
2022/06/23 08:03:00;;;;;;;2.50;1.40;;;;;;;23.11;44.61;101200.03;5087066;28;20028;-58
2022/06/23 08:05:35;;;;;;;2.80;1.50;;;;;;;23.15;44.59;101195.06;5087382;28;20072;-59
2022/06/23 08:08:01;;;;;;;3.10;2.00;;;;;;;23.15;44.67;101193.22;5087691;28;20028;-59
2022/06/23 08:10:29;;;;;;;3.15;1.52;;;;;;;23.16;45.03;101188.63;5093552;28;20079;-59
2022/06/23 08:12:58;;;;;;;1.73;1.60;;;;;;;23.18;44.61;101178.41;5107732;28;20033;-58
2022/06/23 08:19:00;;;;;;;2.30;1.85;;;;;;;23.17;45.57;101171.31;5110364;28;20026;-59
2022/06/23 08:21:29;;;;;;;2.08;1.77;;;;;;;23.18;45.32;101168.41;5106584;28;20113;-59
2022/06/23 08:24:05;;;;;;;2.10;1.70;;;;;;;23.22;45.37;101173.44;5125643;28;20045;-59
2022/06/23 08:26:32;;;;;;;2.55;1.48;;;;;;;23.18;45.32;101168.41;5107251;28;20027;-59
2022/06/23 08:28:59;;;;;;;2.60;1.55;;;;;;;23.24;45.48;101172.25;5125784;28;20091;-59
2022/06/23 08:31:25;;;;;;;2.10;1.60;;;;;;;23.27;45.39;101168.28;5125353;28;20027;-59
2022/06/23 08:33:51;;;;;;;3.00;1.77;;;;;;;23.27;45.35;101163.69;5107127;28;20043;-58
2022/06/23 08:36:19;;;;;;;3.45;1.73;;;;;;;23.23;45.45;101150.72;5106760;28;20045;-58
2022/06/23 08:38:49;;;;;;;2.53;1.40;;;;;;;23.30;45.19;101166.03;5125957;28;20030;-59
2022/06/23 08:41:31;;;;;;;2.97;1.48;;;;;;;23.31;45.26;101167.72;5107378;28;20051;-58
2022/06/23 08:44:07;;;;;;;2.75;1.77;;;;;;;23.31;45.24;101162.28;5107257;28;20050;-59
2022/06/23 08:46:49;;;;;;;3.00;1.88;;;;;;;23.33;45.56;101159.41;5107643;28;20099;-59
2022/06/23 08:49:23;;;;;;;2.13;1.38;;;;;;;23.33;45.45;101154.81;5107411;28;20027;-58
2022/06/23 08:52:19;;;;;;;2.08;1.60;;;;;;;23.35;45.11;101149.19;5106792;28;20035;-58
2022/06/23 08:55:07;;;;;;;3.40;2.00;;;;;;;23.35;45.18;101146.47;5125617;28;20028;-59
2022/06/23 08:57:38;;;;;;;2.67;1.58;;;;;;;23.36;45.21;101142.72;5106938;28;20053;-58
2022/06/23 09:00:09;;;;;;;2.75;1.80;;;;;;;23.36;45.15;101140.88;5107036;28;20425;-59
2022/06/23 09:02:53;;;;;;;2.58;1.50;;;;;;;23.36;45.25;101149.00;5106793;28;20031;-59
2022/06/23 09:05:31;;;;;;;3.38;2.00;;;;;;;23.37;44.97;101145.25;5124911;28;20023;-59
2022/06/23 09:08:18;;;;;;;2.83;1.70;;;;;;;23.38;45.15;101152.34;5107140;28;20024;-59
2022/06/23 09:10:59;;;;;;;2.50;1.75;;;;;;;23.39;44.92;101145.88;5098370;28;20020;-59
2022/06/23 09:13:48;;;;;;;2.05;1.63;;;;;;;23.40;44.85;101142.13;5104405;28;20039;-59
2022/06/23 09:16:45;;;;;;;2.33;1.63;;;;;;;23.41;45.04;101143.84;5104862;28;20085;-59
2022/06/23 09:19:36;;;;;;;2.65;1.80;;;;;;;23.31;45.20;101118.03;5104995;28;20565;-58
2022/06/23 09:22:04;;;;;;;3.90;1.60;;;;;;;23.42;45.25;101153.66;5094649;28;20523;-57
2022/06/23 09:24:35;;;;;;;2.65;1.63;;;;;;;23.42;45.00;101140.09;5104687;28;20035;-59
2022/06/23 09:27:16;;;;;;;2.25;1.65;;;;;;;23.44;45.14;101142.59;5104614;28;20025;-59
2022/06/23 09:29:57;;;;;;;2.30;1.60;;;;;;;23.44;45.11;101137.16;5105086;28;20024;-59
2022/06/23 09:32:28;;;;;;;3.10;1.80;;;;;;;23.45;44.99;101144.28;5104323;28;20027;-59
2022/06/23 09:35:31;;;;;;;3.22;1.92;;;;;;;23.47;45.10;101135.94;5104853;28;20103;-59
2022/06/23 09:38:32;;;;;;;8.23;2.08;;;;;;;23.47;45.03;101134.06;5104779;28;20699;-58
2022/06/23 09:41:35;;;;;;;2.03;1.83;;;;;;;23.50;45.16;101130.16;5086339;28;20049;-59
2022/06/23 09:44:39;;;;;;;2.60;1.85;;;;;;;23.49;45.21;101132.03;5104119;28;20050;-59
2022/06/23 09:47:04;;;;;;;3.85;2.08;;;;;;;23.50;45.38;101139.13;5064149;28;20028;-59
2022/06/23 09:49:44;;;;;;;2.20;1.77;;;;;;;23.51;45.36;101142.66;5108104;28;20304;-59
2022/06/23 09:52:17;;;;;;;3.22;1.67;;;;;;;23.52;45.16;101139.75;5089410;28;20533;-59
2022/06/23 09:54:57;;;;;;;2.83;1.92;;;;;;;23.53;45.08;101127.84;5090175;28;20028;-59
2022/06/23 09:57:49;;;;;;;2.38;1.98;;;;;;;23.54;45.19;101129.56;5089730;28;20128;-59
2022/06/23 10:00:19;;;;;;;2.10;1.65;;;;;;;23.55;44.94;101131.22;5089903;28;20024;-59
2022/06/23 10:02:57;;;;;;;4.13;2.38;;;;;;;23.52;44.93;101128.06;5089581;28;20120;-59
2022/06/23 10:05:25;;;;;;;4.22;2.28;;;;;;;23.57;45.30;101137.28;5089395;28;20501;-59
2022/06/23 10:08:09;;;;;;;2.25;1.80;;;;;;;23.59;45.21;101128.97;5108070;28;20038;-59
2022/06/23 10:10:43;;;;;;;2.25;1.63;;;;;;;23.59;44.93;101131.69;5115048;28;20026;-59
2022/06/23 10:13:22;;;;;;;4.38;1.90;;;;;;;23.60;45.11;101126.06;5109608;28;20031;-59
2022/06/23 10:16:04;;;;;;;2.15;1.85;;;;;;;23.62;44.83;101120.44;5110018;28;20024;-59
2022/06/23 10:19:07;;;;;;;2.97;1.92;;;;;;;23.63;45.15;101113.97;5109772;28;20024;-58
2022/06/23 10:21:53;;;;;;;2.15;1.63;;;;;;;23.65;44.89;101112.75;5044007;28;20048;-59
2022/06/23 10:24:44;;;;;;;2.78;2.20;;;;;;;23.65;44.95;101110.06;5028453;28;20096;-59
2022/06/23 10:27:37;;;;;;;1.98;1.80;;;;;;;23.67;45.02;101115.31;5044668;28;20043;-59
2022/06/23 10:30:09;;;;;;;3.08;1.95;;;;;;;23.67;45.18;101105.28;5045093;28;20106;-59
2022/06/23 10:32:45;;;;;;;2.22;2.03;;;;;;;23.70;44.85;101109.47;5044296;28;20502;-59
2022/06/23 10:35:22;;;;;;;2.50;1.90;;;;;;;23.71;44.80;101107.63;5028300;28;20029;-59
2022/06/23 10:37:53;;;;;;;2.67;1.92;;;;;;;23.72;44.83;101103.84;5028052;28;20045;-59
2022/06/23 10:40:43;;;;;;;2.40;1.70;;;;;;;23.74;44.59;101104.47;5044425;28;20057;-59
2022/06/23 10:43:35;;;;;;;3.13;2.17;;;;;;;23.75;44.54;101101.59;5044054;28;20029;-59
2022/06/23 10:46:10;;;;;;;4.80;2.20;;;;;;;23.77;44.80;101091.34;5001104;28;20212;-59
2022/06/23 10:49:11;;;;;;;3.22;2.03;;;;;;;23.78;44.90;101086.78;5027966;28;20041;-59
2022/06/23 10:51:59;;;;;;;2.25;1.55;;;;;;;23.79;44.56;101094.75;5038213;28;20033;-59
2022/06/23 10:54:36;;;;;;;3.08;2.03;;;;;;;23.81;44.63;101094.53;5044453;28;20036;-59
2022/06/23 10:57:14;;;;;;;3.55;2.08;;;;;;;23.81;44.76;101084.50;5084548;28;20041;-59
2022/06/23 10:59:48;;;;;;;2.40;1.80;;;;;;;23.81;44.79;101087.22;5108471;28;20020;-59
2022/06/23 11:02:41;;;;;;;2.00;1.80;;;;;;;23.83;44.86;101084.28;5127067;28;20032;-58
2022/06/23 11:05:31;;;;;;;2.30;1.70;;;;;;;23.84;44.67;101086.00;5108949;28;20049;-58
2022/06/23 11:08:20;;;;;;;2.60;2.10;;;;;;;23.85;44.49;101072.22;5127171;28;20073;-58
2022/06/23 11:10:52;;;;;;;2.15;1.90;;;;;;;23.87;44.86;101077.44;5099854;28;20020;-58
2022/06/23 11:13:35;;;;;;;2.45;1.80;;;;;;;23.88;44.78;101073.72;5106056;28;20079;-58
2022/06/23 11:16:15;;;;;;;3.28;2.20;;;;;;;23.87;44.74;101063.84;5106596;28;20027;-58
2022/06/23 11:18:50;;;;;;;3.10;2.10;;;;;;;23.92;44.84;101070.41;5088704;28;20028;-58
2022/06/23 11:21:27;;;;;;;3.75;2.20;;;;;;;23.93;44.75;101069.34;5105808;28;20059;-59
2022/06/23 11:24:04;;;;;;;2.40;1.98;;;;;;;23.97;44.48;101068.97;5106168;28;20028;-60
2022/06/23 11:26:58;;;;;;;3.20;2.30;;;;;;;24.00;44.65;101061.25;5106689;28;20112;-59
2022/06/23 11:30:03;;;;;;;3.20;2.15;;;;;;;24.01;44.60;101057.50;5088200;28;20083;-60
2022/06/23 11:33:08;;;;;;;3.20;2.25;;;;;;;24.03;44.42;101049.13;5060609;28;20055;-58
2022/06/23 11:35:40;;;;;;;3.03;2.10;;;;;;;24.04;44.72;101048.09;5059298;28;20344;-60
2022/06/23 11:38:47;;;;;;;3.10;2.33;;;;;;;24.04;44.64;101037.22;5088020;28;20020;-59
2022/06/23 11:41:37;;;;;;;3.92;2.30;;;;;;;24.04;44.72;101040.78;5087721;28;20027;-60
2022/06/23 11:44:39;;;;;;;2.80;2.17;;;;;;;24.04;44.85;101037.22;5105645;28;20072;-60
2022/06/23 11:47:13;;;;;;;2.78;2.30;;;;;;;24.04;45.15;101037.22;5105935;28;20046;-60
2022/06/23 11:49:57;;;;;;;2.85;2.22;;;;;;;24.04;44.95;101035.34;5087934;28;20080;-59
2022/06/23 11:52:45;;;;;;;3.80;2.42;;;;;;;24.04;45.13;101029.91;5105170;28;20020;-59
2022/06/23 11:55:17;;;;;;;4.40;2.70;;;;;;;24.04;45.27;101023.66;5087871;28;20039;-58
2022/06/23 11:58:13;;;;;;;2.75;2.25;;;;;;;24.05;45.45;101033.50;5105765;28;20027;-58
2022/06/23 12:01:02;;;;;;;2.17;1.98;;;;;;;24.05;45.41;101019.91;5087844;28;20028;-59
2022/06/23 12:04:03;;;;;;;3.05;2.40;;;;;;;24.04;45.29;101019.06;5087332;28;20020;-59
2022/06/23 12:06:43;;;;;;;2.40;2.20;;;;;;;24.05;45.43;101020.75;5063798;28;20066;-59
2022/06/23 12:09:28;;;;;;;2.80;2.53;;;;;;;24.05;45.29;101009.88;5105348;28;20054;-59
2022/06/23 12:11:55;;;;;;;3.80;3.15;;;;;;;24.05;45.17;101007.19;5123959;28;20027;-59
2022/06/23 12:14:22;;;;;;;3.20;2.47;;;;;;;24.06;45.18;101008.00;5125603;28;20028;-59
2022/06/23 12:17:03;;;;;;;4.07;3.20;;;;;;;24.07;45.44;101004.25;5107934;28;20038;-58
2022/06/23 12:19:43;;;;;;;2.90;2.10;;;;;;;24.08;45.33;101008.63;5107542;28;20026;-59
2022/06/23 12:22:15;;;;;;;4.25;2.97;;;;;;;24.08;45.35;101004.03;5106973;28;20047;-59
2022/06/23 12:25:00;;;;;;;3.38;2.85;;;;;;;24.10;45.24;101003.84;5107484;28;20032;-59